sensor_id;sensor_type;location;lat;lon;timestamp;P1;durP1;ratioP1;P2;durP2;ratioP2
64395;SDS011;50717;53.360;6.290;2023-04-01T00:01:33;15.85;;;10.48;;
64395;SDS011;50717;53.360;6.290;2023-04-01T00:03:58;16.08;;;11.00;;
64395;SDS011;50717;53.360;6.290;2023-04-01T00:06:26;18.98;;;10.57;;
64395;SDS011;50717;53.360;6.290;2023-04-01T00:08:52;16.25;;;9.85;;
64395;SDS011;50717;53.360;6.290;2023-04-01T00:11:19;16.15;;;10.90;;
64395;SDS011;50717;53.360;6.290;2023-04-01T00:13:46;17.40;;;10.63;;
64395;SDS011;50717;53.360;6.290;2023-04-01T00:16:12;16.15;;;10.52;;
64395;SDS011;50717;53.360;6.290;2023-04-01T00:18:38;20.88;;;11.43;;
64395;SDS011;50717;53.360;6.290;2023-04-01T00:21:04;17.23;;;11.27;;
64395;SDS011;50717;53.360;6.290;2023-04-01T00:23:30;20.02;;;11.50;;
64395;SDS011;50717;53.360;6.290;2023-04-01T00:25:56;15.38;;;10.60;;
64395;SDS011;50717;53.360;6.290;2023-04-01T00:28:24;19.85;;;11.30;;
64395;SDS011;50717;53.360;6.290;2023-04-01T00:30:49;14.98;;;10.80;;
64395;SDS011;50717;53.360;6.290;2023-04-01T00:33:15;18.15;;;10.65;;
64395;SDS011;50717;53.360;6.290;2023-04-01T00:35:42;18.40;;;11.23;;
64395;SDS011;50717;53.360;6.290;2023-04-01T00:38:08;16.88;;;10.65;;
64395;SDS011;50717;53.360;6.290;2023-04-01T00:40:34;16.15;;;10.27;;
64395;SDS011;50717;53.360;6.290;2023-04-01T00:43:02;17.67;;;10.10;;
64395;SDS011;50717;53.360;6.290;2023-04-01T00:45:30;17.13;;;10.98;;
64395;SDS011;50717;53.360;6.290;2023-04-01T00:48:00;15.30;;;10.38;;
64395;SDS011;50717;53.360;6.290;2023-04-01T00:50:30;18.10;;;11.13;;
64395;SDS011;50717;53.360;6.290;2023-04-01T00:52:59;14.05;;;10.25;;
64395;SDS011;50717;53.360;6.290;2023-04-01T00:55:25;16.08;;;10.50;;
64395;SDS011;50717;53.360;6.290;2023-04-01T00:57:55;17.50;;;10.50;;
64395;SDS011;50717;53.360;6.290;2023-04-01T01:00:23;16.17;;;10.32;;
64395;SDS011;50717;53.360;6.290;2023-04-01T01:02:51;14.02;;;10.23;;
64395;SDS011;50717;53.360;6.290;2023-04-01T01:05:17;19.05;;;10.98;;
64395;SDS011;50717;53.360;6.290;2023-04-01T01:15:34;18.83;;;10.70;;
64395;SDS011;50717;53.360;6.290;2023-04-01T01:27:03;14.43;;;10.63;;
64395;SDS011;50717;53.360;6.290;2023-04-01T01:37:31;19.13;;;11.88;;
64395;SDS011;50717;53.360;6.290;2023-04-01T01:40:02;17.73;;;11.00;;
64395;SDS011;50717;53.360;6.290;2023-04-01T01:42:30;22.35;;;11.43;;
64395;SDS011;50717;53.360;6.290;2023-04-01T01:44:58;18.98;;;11.43;;
64395;SDS011;50717;53.360;6.290;2023-04-01T01:47:26;22.13;;;11.48;;
64395;SDS011;50717;53.360;6.290;2023-04-01T01:49:54;19.08;;;12.05;;
64395;SDS011;50717;53.360;6.290;2023-04-01T01:52:24;18.95;;;11.73;;
64395;SDS011;50717;53.360;6.290;2023-04-01T01:54:53;18.92;;;11.10;;
64395;SDS011;50717;53.360;6.290;2023-04-01T01:57:33;17.85;;;12.05;;
64395;SDS011;50717;53.360;6.290;2023-04-01T02:00:05;16.83;;;10.45;;
64395;SDS011;50717;53.360;6.290;2023-04-01T02:02:45;18.35;;;11.23;;
64395;SDS011;50717;53.360;6.290;2023-04-01T02:05:15;15.38;;;10.32;;
64395;SDS011;50717;53.360;6.290;2023-04-01T02:07:44;14.85;;;10.30;;
64395;SDS011;50717;53.360;6.290;2023-04-01T02:10:14;16.40;;;9.82;;
64395;SDS011;50717;53.360;6.290;2023-04-01T02:12:40;12.48;;;7.75;;
64395;SDS011;50717;53.360;6.290;2023-04-01T02:15:11;11.77;;;6.85;;
64395;SDS011;50717;53.360;6.290;2023-04-01T02:17:40;10.20;;;6.90;;
64395;SDS011;50717;53.360;6.290;2023-04-01T02:20:19;10.63;;;6.82;;
64395;SDS011;50717;53.360;6.290;2023-04-01T02:22:51;12.07;;;7.55;;
64395;SDS011;50717;53.360;6.290;2023-04-01T02:25:23;16.98;;;8.73;;
64395;SDS011;50717;53.360;6.290;2023-04-01T02:27:52;16.42;;;9.68;;
64395;SDS011;50717;53.360;6.290;2023-04-01T02:30:21;19.33;;;11.38;;
64395;SDS011;50717;53.360;6.290;2023-04-01T02:32:48;19.75;;;11.75;;
64395;SDS011;50717;53.360;6.290;2023-04-01T02:35:15;23.20;;;12.30;;
64395;SDS011;50717;53.360;6.290;2023-04-01T02:37:43;20.42;;;12.68;;
64395;SDS011;50717;53.360;6.290;2023-04-01T02:40:12;22.83;;;13.13;;
64395;SDS011;50717;53.360;6.290;2023-04-01T02:42:39;25.80;;;14.02;;
64395;SDS011;50717;53.360;6.290;2023-04-01T02:45:06;26.95;;;14.43;;
64395;SDS011;50717;53.360;6.290;2023-04-01T02:47:32;27.83;;;14.27;;
64395;SDS011;50717;53.360;6.290;2023-04-01T02:49:58;27.23;;;15.27;;
64395;SDS011;50717;53.360;6.290;2023-04-01T02:52:24;27.25;;;15.65;;
64395;SDS011;50717;53.360;6.290;2023-04-01T02:54:50;27.10;;;14.63;;
64395;SDS011;50717;53.360;6.290;2023-04-01T02:57:15;30.23;;;15.65;;
64395;SDS011;50717;53.360;6.290;2023-04-01T02:59:41;28.35;;;15.52;;
64395;SDS011;50717;53.360;6.290;2023-04-01T03:02:07;29.33;;;15.88;;
64395;SDS011;50717;53.360;6.290;2023-04-01T03:04:32;26.65;;;14.73;;
64395;SDS011;50717;53.360;6.290;2023-04-01T03:06:58;29.30;;;15.73;;
64395;SDS011;50717;53.360;6.290;2023-04-01T03:09:24;29.05;;;15.05;;
64395;SDS011;50717;53.360;6.290;2023-04-01T03:11:50;27.73;;;15.57;;
64395;SDS011;50717;53.360;6.290;2023-04-01T03:14:15;29.42;;;15.07;;
64395;SDS011;50717;53.360;6.290;2023-04-01T03:16:41;30.25;;;14.52;;
64395;SDS011;50717;53.360;6.290;2023-04-01T03:19:07;25.23;;;14.85;;
64395;SDS011;50717;53.360;6.290;2023-04-01T03:21:32;28.40;;;14.90;;
64395;SDS011;50717;53.360;6.290;2023-04-01T03:23:58;26.73;;;15.70;;
64395;SDS011;50717;53.360;6.290;2023-04-01T03:26:24;30.67;;;16.85;;
64395;SDS011;50717;53.360;6.290;2023-04-01T03:28:51;30.17;;;16.52;;
64395;SDS011;50717;53.360;6.290;2023-04-01T03:31:17;33.25;;;16.92;;
64395;SDS011;50717;53.360;6.290;2023-04-01T03:36:10;29.40;;;15.77;;
64395;SDS011;50717;53.360;6.290;2023-04-01T03:38:37;33.15;;;16.80;;
64395;SDS011;50717;53.360;6.290;2023-04-01T03:41:07;32.45;;;17.50;;
64395;SDS011;50717;53.360;6.290;2023-04-01T03:43:36;33.55;;;16.83;;
64395;SDS011;50717;53.360;6.290;2023-04-01T03:46:02;31.92;;;17.52;;
64395;SDS011;50717;53.360;6.290;2023-04-01T03:48:27;30.92;;;17.58;;
64395;SDS011;50717;53.360;6.290;2023-04-01T03:50:53;37.47;;;17.75;;
64395;SDS011;50717;53.360;6.290;2023-04-01T03:53:19;36.63;;;18.92;;
64395;SDS011;50717;53.360;6.290;2023-04-01T03:55:45;35.33;;;18.23;;
64395;SDS011;50717;53.360;6.290;2023-04-01T03:58:11;37.85;;;17.65;;
64395;SDS011;50717;53.360;6.290;2023-04-01T04:00:37;33.72;;;18.10;;
64395;SDS011;50717;53.360;6.290;2023-04-01T04:03:03;36.72;;;18.80;;
64395;SDS011;50717;53.360;6.290;2023-04-01T04:05:30;34.17;;;18.42;;
64395;SDS011;50717;53.360;6.290;2023-04-01T04:07:56;37.90;;;18.15;;
64395;SDS011;50717;53.360;6.290;2023-04-01T04:10:22;35.42;;;18.63;;
64395;SDS011;50717;53.360;6.290;2023-04-01T04:12:49;39.90;;;19.08;;
64395;SDS011;50717;53.360;6.290;2023-04-01T04:15:16;35.70;;;17.85;;
64395;SDS011;50717;53.360;6.290;2023-04-01T04:17:42;36.88;;;18.08;;
64395;SDS011;50717;53.360;6.290;2023-04-01T04:20:08;35.72;;;19.33;;
64395;SDS011;50717;53.360;6.290;2023-04-01T04:22:35;37.15;;;18.80;;
64395;SDS011;50717;53.360;6.290;2023-04-01T04:25:00;36.60;;;19.70;;
64395;SDS011;50717;53.360;6.290;2023-04-01T04:27:26;40.45;;;21.00;;
64395;SDS011;50717;53.360;6.290;2023-04-01T04:29:52;43.72;;;21.75;;
64395;SDS011;50717;53.360;6.290;2023-04-01T04:32:17;43.67;;;21.35;;
64395;SDS011;50717;53.360;6.290;2023-04-01T04:34:43;34.85;;;19.23;;
64395;SDS011;50717;53.360;6.290;2023-04-01T04:37:09;43.75;;;20.80;;
64395;SDS011;50717;53.360;6.290;2023-04-01T04:39:34;40.55;;;20.45;;
64395;SDS011;50717;53.360;6.290;2023-04-01T04:42:00;41.53;;;20.95;;
64395;SDS011;50717;53.360;6.290;2023-04-01T04:44:26;45.88;;;23.02;;
64395;SDS011;50717;53.360;6.290;2023-04-01T04:46:51;42.55;;;21.45;;
64395;SDS011;50717;53.360;6.290;2023-04-01T04:49:17;43.80;;;21.65;;
64395;SDS011;50717;53.360;6.290;2023-04-01T04:54:10;39.60;;;20.58;;
64395;SDS011;50717;53.360;6.290;2023-04-01T04:56:36;42.10;;;20.77;;
64395;SDS011;50717;53.360;6.290;2023-04-01T04:59:02;47.58;;;21.42;;
64395;SDS011;50717;53.360;6.290;2023-04-01T05:01:27;50.65;;;21.52;;
64395;SDS011;50717;53.360;6.290;2023-04-01T05:03:53;42.80;;;22.15;;
64395;SDS011;50717;53.360;6.290;2023-04-01T05:06:19;43.33;;;21.25;;
64395;SDS011;50717;53.360;6.290;2023-04-01T05:08:45;43.25;;;20.20;;
64395;SDS011;50717;53.360;6.290;2023-04-01T05:11:15;48.40;;;21.92;;
64395;SDS011;50717;53.360;6.290;2023-04-01T05:13:44;49.10;;;20.23;;
64395;SDS011;50717;53.360;6.290;2023-04-01T05:16:12;42.80;;;19.52;;
64395;SDS011;50717;53.360;6.290;2023-04-01T05:18:39;47.25;;;18.45;;
64395;SDS011;50717;53.360;6.290;2023-04-01T05:21:06;42.88;;;17.90;;
64395;SDS011;50717;53.360;6.290;2023-04-01T05:23:33;40.10;;;17.63;;
64395;SDS011;50717;53.360;6.290;2023-04-01T05:25:59;36.95;;;16.45;;
64395;SDS011;50717;53.360;6.290;2023-04-01T05:28:28;35.05;;;16.05;;
64395;SDS011;50717;53.360;6.290;2023-04-01T05:30:54;39.00;;;17.23;;
64395;SDS011;50717;53.360;6.290;2023-04-01T05:33:20;38.08;;;16.45;;
64395;SDS011;50717;53.360;6.290;2023-04-01T05:35:45;38.97;;;17.70;;
64395;SDS011;50717;53.360;6.290;2023-04-01T05:38:11;42.08;;;17.15;;
64395;SDS011;50717;53.360;6.290;2023-04-01T05:40:37;46.10;;;19.55;;
64395;SDS011;50717;53.360;6.290;2023-04-01T05:43:02;40.90;;;19.98;;
64395;SDS011;50717;53.360;6.290;2023-04-01T05:45:28;51.28;;;21.45;;
64395;SDS011;50717;53.360;6.290;2023-04-01T05:47:54;50.03;;;22.85;;
64395;SDS011;50717;53.360;6.290;2023-04-01T05:50:19;53.75;;;25.30;;
64395;SDS011;50717;53.360;6.290;2023-04-01T05:52:45;52.22;;;23.98;;
64395;SDS011;50717;53.360;6.290;2023-04-01T05:55:11;50.85;;;22.90;;
64395;SDS011;50717;53.360;6.290;2023-04-01T05:57:37;54.40;;;24.35;;
64395;SDS011;50717;53.360;6.290;2023-04-01T06:00:03;58.60;;;25.75;;
64395;SDS011;50717;53.360;6.290;2023-04-01T06:02:29;52.72;;;23.38;;
64395;SDS011;50717;53.360;6.290;2023-04-01T06:05:29;57.72;;;24.30;;
64395;SDS011;50717;53.360;6.290;2023-04-01T06:07:50;60.20;;;25.25;;
64395;SDS011;50717;53.360;6.290;2023-04-01T06:10:20;61.13;;;25.02;;
64395;SDS011;50717;53.360;6.290;2023-04-01T06:15:23;54.42;;;23.50;;
64395;SDS011;50717;53.360;6.290;2023-04-01T06:18:31;53.55;;;23.40;;
64395;SDS011;50717;53.360;6.290;2023-04-01T06:35:25;54.13;;;23.65;;
64395;SDS011;50717;53.360;6.290;2023-04-01T06:40:50;45.50;;;21.58;;
64395;SDS011;50717;53.360;6.290;2023-04-01T06:48:46;51.55;;;23.65;;
64395;SDS011;50717;53.360;6.290;2023-04-01T06:56:10;49.95;;;23.55;;
64395;SDS011;50717;53.360;6.290;2023-04-01T07:01:21;52.75;;;24.10;;
64395;SDS011;50717;53.360;6.290;2023-04-01T07:09:33;45.47;;;22.53;;
64395;SDS011;50717;53.360;6.290;2023-04-01T07:12:03;46.60;;;21.55;;
64395;SDS011;50717;53.360;6.290;2023-04-01T07:14:37;43.90;;;19.92;;
64395;SDS011;50717;53.360;6.290;2023-04-01T07:17:07;33.88;;;15.02;;
64395;SDS011;50717;53.360;6.290;2023-04-01T07:20:02;33.15;;;13.00;;
64395;SDS011;50717;53.360;6.290;2023-04-01T07:23:05;27.58;;;13.40;;
64395;SDS011;50717;53.360;6.290;2023-04-01T07:28:13;22.17;;;10.57;;
64395;SDS011;50717;53.360;6.290;2023-04-01T07:33:23;25.05;;;7.65;;
64395;SDS011;50717;53.360;6.290;2023-04-01T07:35:57;16.88;;;5.90;;
64395;SDS011;50717;53.360;6.290;2023-04-01T07:49:48;12.52;;;4.05;;
64395;SDS011;50717;53.360;6.290;2023-04-01T07:54:57;10.43;;;3.83;;
64395;SDS011;50717;53.360;6.290;2023-04-01T07:57:34;11.95;;;4.28;;
64395;SDS011;50717;53.360;6.290;2023-04-01T08:05:49;15.10;;;5.28;;
64395;SDS011;50717;53.360;6.290;2023-04-01T08:17:10;9.65;;;3.35;;
64395;SDS011;50717;53.360;6.290;2023-04-01T08:19:59;10.93;;;3.67;;
64395;SDS011;50717;53.360;6.290;2023-04-01T08:22:45;10.32;;;4.40;;
64395;SDS011;50717;53.360;6.290;2023-04-01T08:25:22;16.50;;;4.05;;
64395;SDS011;50717;53.360;6.290;2023-04-01T08:27:51;9.05;;;3.80;;
64395;SDS011;50717;53.360;6.290;2023-04-01T08:30:25;14.88;;;4.55;;
64395;SDS011;50717;53.360;6.290;2023-04-01T08:36:05;8.73;;;3.60;;
64395;SDS011;50717;53.360;6.290;2023-04-01T08:38:49;5.18;;;3.20;;
64395;SDS011;50717;53.360;6.290;2023-04-01T08:41:44;12.30;;;4.65;;
64395;SDS011;50717;53.360;6.290;2023-04-01T09:35:38;7.47;;;3.63;;
64395;SDS011;50717;53.360;6.290;2023-04-01T09:46:42;7.68;;;3.78;;
64395;SDS011;50717;53.360;6.290;2023-04-01T09:54:47;10.27;;;4.07;;
64395;SDS011;50717;53.360;6.290;2023-04-01T10:00:06;5.70;;;3.20;;
64395;SDS011;50717;53.360;6.290;2023-04-01T10:30:50;7.90;;;3.00;;
64395;SDS011;50717;53.360;6.290;2023-04-01T10:33:54;3.87;;;2.97;;
64395;SDS011;50717;53.360;6.290;2023-04-01T10:36:31;5.57;;;2.83;;
64395;SDS011;50717;53.360;6.290;2023-04-01T10:39:33;5.28;;;2.70;;
64395;SDS011;50717;53.360;6.290;2023-04-01T10:51:04;6.47;;;3.00;;
64395;SDS011;50717;53.360;6.290;2023-04-01T10:57:02;5.40;;;2.53;;
64395;SDS011;50717;53.360;6.290;2023-04-01T10:59:52;4.90;;;2.40;;
64395;SDS011;50717;53.360;6.290;2023-04-01T11:13:56;3.63;;;2.53;;
64395;SDS011;50717;53.360;6.290;2023-04-01T11:39:03;5.88;;;2.60;;
64395;SDS011;50717;53.360;6.290;2023-04-01T11:52:19;6.47;;;2.38;;
64395;SDS011;50717;53.360;6.290;2023-04-01T12:00:32;4.15;;;2.10;;
64395;SDS011;50717;53.360;6.290;2023-04-01T12:08:41;2.63;;;1.98;;
64395;SDS011;50717;53.360;6.290;2023-04-01T12:16:43;4.15;;;2.10;;
64395;SDS011;50717;53.360;6.290;2023-04-01T12:19:23;2.67;;;1.85;;
64395;SDS011;50717;53.360;6.290;2023-04-01T12:44:37;2.63;;;2.00;;
64395;SDS011;50717;53.360;6.290;2023-04-01T12:55:25;4.05;;;2.50;;
64395;SDS011;50717;53.360;6.290;2023-04-01T12:58:44;3.92;;;2.00;;
64395;SDS011;50717;53.360;6.290;2023-04-01T13:03:41;3.80;;;2.40;;
64395;SDS011;50717;53.360;6.290;2023-04-01T13:09:11;4.28;;;2.53;;
64395;SDS011;50717;53.360;6.290;2023-04-01T13:25:50;5.43;;;2.10;;
64395;SDS011;50717;53.360;6.290;2023-04-01T13:28:40;7.50;;;2.30;;
64395;SDS011;50717;53.360;6.290;2023-04-01T13:34:16;2.83;;;2.20;;
64395;SDS011;50717;53.360;6.290;2023-04-01T13:45:00;3.88;;;2.33;;
64395;SDS011;50717;53.360;6.290;2023-04-01T13:55:54;3.00;;;2.00;;
64395;SDS011;50717;53.360;6.290;2023-04-01T14:07:18;6.47;;;2.75;;
64395;SDS011;50717;53.360;6.290;2023-04-01T14:12:39;5.85;;;2.60;;
64395;SDS011;50717;53.360;6.290;2023-04-01T14:18:26;8.60;;;3.75;;
64395;SDS011;50717;53.360;6.290;2023-04-01T14:24:08;5.78;;;2.97;;
64395;SDS011;50717;53.360;6.290;2023-04-01T14:27:05;4.32;;;2.90;;
64395;SDS011;50717;53.360;6.290;2023-04-01T14:47:04;8.95;;;3.80;;
64395;SDS011;50717;53.360;6.290;2023-04-01T14:49:53;11.30;;;4.13;;
64395;SDS011;50717;53.360;6.290;2023-04-01T14:52:35;8.57;;;3.80;;
64395;SDS011;50717;53.360;6.290;2023-04-01T14:58:12;9.07;;;4.72;;
64395;SDS011;50717;53.360;6.290;2023-04-01T15:03:29;10.70;;;4.43;;
64395;SDS011;50717;53.360;6.290;2023-04-01T15:09:17;8.90;;;4.95;;
64395;SDS011;50717;53.360;6.290;2023-04-01T15:20:13;8.25;;;4.60;;
64395;SDS011;50717;53.360;6.290;2023-04-01T15:22:58;12.75;;;5.57;;
64395;SDS011;50717;53.360;6.290;2023-04-01T15:25:39;11.60;;;5.55;;
64395;SDS011;50717;53.360;6.290;2023-04-01T15:36:14;12.50;;;5.32;;
64395;SDS011;50717;53.360;6.290;2023-04-01T15:38:57;8.88;;;5.63;;
64395;SDS011;50717;53.360;6.290;2023-04-01T15:42:01;13.00;;;5.53;;
64395;SDS011;50717;53.360;6.290;2023-04-01T15:44:46;13.80;;;6.32;;
64395;SDS011;50717;53.360;6.290;2023-04-01T15:55:57;12.57;;;5.85;;
64395;SDS011;50717;53.360;6.290;2023-04-01T15:59:16;12.50;;;5.38;;
64395;SDS011;50717;53.360;6.290;2023-04-01T16:01:35;13.63;;;5.78;;
64395;SDS011;50717;53.360;6.290;2023-04-01T16:09:43;10.65;;;6.55;;
64395;SDS011;50717;53.360;6.290;2023-04-01T16:12:18;11.40;;;5.78;;
64395;SDS011;50717;53.360;6.290;2023-04-01T16:17:49;13.90;;;6.47;;
64395;SDS011;50717;53.360;6.290;2023-04-01T16:25:40;14.68;;;5.68;;
64395;SDS011;50717;53.360;6.290;2023-04-01T16:28:34;17.48;;;6.75;;
64395;SDS011;50717;53.360;6.290;2023-04-01T16:33:58;13.77;;;6.20;;
64395;SDS011;50717;53.360;6.290;2023-04-01T16:42:16;13.07;;;6.10;;
64395;SDS011;50717;53.360;6.290;2023-04-01T16:44:55;20.23;;;6.70;;
64395;SDS011;50717;53.360;6.290;2023-04-01T16:47:30;18.08;;;6.18;;
64395;SDS011;50717;53.360;6.290;2023-04-01T16:50:13;12.70;;;6.43;;
64395;SDS011;50717;53.360;6.290;2023-04-01T16:52:43;14.07;;;6.53;;
64395;SDS011;50717;53.360;6.290;2023-04-01T16:55:36;14.15;;;6.63;;
64395;SDS011;50717;53.360;6.290;2023-04-01T16:58:09;18.45;;;7.32;;
64395;SDS011;50717;53.360;6.290;2023-04-01T17:00:49;15.85;;;6.97;;
64395;SDS011;50717;53.360;6.290;2023-04-01T17:06:07;12.55;;;6.55;;
64395;SDS011;50717;53.360;6.290;2023-04-01T17:11:55;20.80;;;7.60;;
64395;SDS011;50717;53.360;6.290;2023-04-01T17:23:11;16.13;;;7.18;;
64395;SDS011;50717;53.360;6.290;2023-04-01T17:39:02;12.20;;;6.55;;
64395;SDS011;50717;53.360;6.290;2023-04-01T17:41:40;15.52;;;7.35;;
64395;SDS011;50717;53.360;6.290;2023-04-01T17:44:16;15.93;;;6.97;;
64395;SDS011;50717;53.360;6.290;2023-04-01T17:49:45;13.25;;;6.50;;
64395;SDS011;50717;53.360;6.290;2023-04-01T17:52:30;13.18;;;7.00;;
64395;SDS011;50717;53.360;6.290;2023-04-01T17:55:37;15.68;;;6.75;;
64395;SDS011;50717;53.360;6.290;2023-04-01T18:01:26;16.02;;;6.70;;
64395;SDS011;50717;53.360;6.290;2023-04-01T18:07:20;20.23;;;6.82;;
64395;SDS011;50717;53.360;6.290;2023-04-01T18:12:44;19.67;;;7.35;;
64395;SDS011;50717;53.360;6.290;2023-04-01T18:15:49;12.43;;;6.60;;
64395;SDS011;50717;53.360;6.290;2023-04-01T18:21:27;12.93;;;6.72;;
64395;SDS011;50717;53.360;6.290;2023-04-01T18:26:50;14.88;;;7.05;;
64395;SDS011;50717;53.360;6.290;2023-04-01T18:32:26;16.27;;;6.15;;
64395;SDS011;50717;53.360;6.290;2023-04-01T18:34:56;14.30;;;6.45;;
64395;SDS011;50717;53.360;6.290;2023-04-01T18:37:39;12.93;;;6.55;;
64395;SDS011;50717;53.360;6.290;2023-04-01T18:40:19;13.07;;;6.03;;
64395;SDS011;50717;53.360;6.290;2023-04-01T18:42:53;14.00;;;6.18;;
64395;SDS011;50717;53.360;6.290;2023-04-01T18:45:40;15.57;;;6.53;;
64395;SDS011;50717;53.360;6.290;2023-04-01T18:48:15;15.70;;;6.60;;
64395;SDS011;50717;53.360;6.290;2023-04-01T18:54:04;10.45;;;6.18;;
64395;SDS011;50717;53.360;6.290;2023-04-01T18:56:43;16.23;;;6.00;;
64395;SDS011;50717;53.360;6.290;2023-04-01T19:10:20;17.95;;;6.53;;
64395;SDS011;50717;53.360;6.290;2023-04-01T19:23:53;12.80;;;6.35;;
64395;SDS011;50717;53.360;6.290;2023-04-01T19:26:35;13.38;;;6.18;;
64395;SDS011;50717;53.360;6.290;2023-04-01T19:34:53;15.02;;;6.60;;
64395;SDS011;50717;53.360;6.290;2023-04-01T19:46:00;10.35;;;5.22;;
64395;SDS011;50717;53.360;6.290;2023-04-01T20:08:56;15.05;;;5.22;;
64395;SDS011;50717;53.360;6.290;2023-04-01T20:14:13;11.80;;;5.32;;
64395;SDS011;50717;53.360;6.290;2023-04-01T20:16:56;11.00;;;5.38;;
64395;SDS011;50717;53.360;6.290;2023-04-01T20:19:37;13.98;;;4.90;;
64395;SDS011;50717;53.360;6.290;2023-04-01T20:22:17;12.60;;;5.15;;
64395;SDS011;50717;53.360;6.290;2023-04-01T20:24:50;11.48;;;5.40;;
64395;SDS011;50717;53.360;6.290;2023-04-01T20:27:21;9.38;;;5.18;;
64395;SDS011;50717;53.360;6.290;2023-04-01T20:38:57;12.27;;;4.65;;
64395;SDS011;50717;53.360;6.290;2023-04-01T20:41:20;14.38;;;4.88;;
64395;SDS011;50717;53.360;6.290;2023-04-01T20:52:22;11.77;;;5.10;;
64395;SDS011;50717;53.360;6.290;2023-04-01T20:55:07;14.40;;;5.55;;
64395;SDS011;50717;53.360;6.290;2023-04-01T20:57:57;10.50;;;5.38;;
64395;SDS011;50717;53.360;6.290;2023-04-01T21:00:28;11.75;;;5.00;;
64395;SDS011;50717;53.360;6.290;2023-04-01T21:06:18;14.13;;;5.97;;
64395;SDS011;50717;53.360;6.290;2023-04-01T21:17:10;15.65;;;5.20;;
64395;SDS011;50717;53.360;6.290;2023-04-01T21:28:28;12.20;;;5.18;;
64395;SDS011;50717;53.360;6.290;2023-04-01T21:36:44;11.73;;;4.85;;
64395;SDS011;50717;53.360;6.290;2023-04-01T21:39:21;14.35;;;4.68;;
64395;SDS011;50717;53.360;6.290;2023-04-01T22:01:31;8.35;;;4.13;;
64395;SDS011;50717;53.360;6.290;2023-04-01T22:07:28;10.60;;;4.22;;
64395;SDS011;50717;53.360;6.290;2023-04-01T22:09:43;10.95;;;4.35;;
64395;SDS011;50717;53.360;6.290;2023-04-01T22:12:21;13.50;;;4.07;;
64395;SDS011;50717;53.360;6.290;2023-04-01T22:15:09;14.75;;;5.18;;
64395;SDS011;50717;53.360;6.290;2023-04-01T22:31:44;11.32;;;4.35;;
64395;SDS011;50717;53.360;6.290;2023-04-01T22:34:37;12.82;;;5.25;;
64395;SDS011;50717;53.360;6.290;2023-04-01T22:37:52;23.98;;;5.07;;
64395;SDS011;50717;53.360;6.290;2023-04-01T22:47:55;12.73;;;4.60;;
64395;SDS011;50717;53.360;6.290;2023-04-01T22:50:34;11.73;;;4.47;;
64395;SDS011;50717;53.360;6.290;2023-04-01T22:55:43;11.70;;;4.57;;
64395;SDS011;50717;53.360;6.290;2023-04-01T23:01:05;9.57;;;4.38;;
64395;SDS011;50717;53.360;6.290;2023-04-01T23:03:32;12.00;;;4.38;;
64395;SDS011;50717;53.360;6.290;2023-04-01T23:06:02;7.97;;;4.18;;
64395;SDS011;50717;53.360;6.290;2023-04-01T23:11:17;11.43;;;4.28;;
64395;SDS011;50717;53.360;6.290;2023-04-01T23:13:49;15.55;;;4.47;;
64395;SDS011;50717;53.360;6.290;2023-04-01T23:16:19;9.65;;;4.03;;
64395;SDS011;50717;53.360;6.290;2023-04-01T23:18:55;7.78;;;3.83;;
64395;SDS011;50717;53.360;6.290;2023-04-01T23:21:26;12.25;;;4.40;;
64395;SDS011;50717;53.360;6.290;2023-04-01T23:26:25;13.40;;;4.28;;
64395;SDS011;50717;53.360;6.290;2023-04-01T23:29:04;9.35;;;4.13;;
64395;SDS011;50717;53.360;6.290;2023-04-01T23:31:37;11.55;;;3.85;;
64395;SDS011;50717;53.360;6.290;2023-04-01T23:36:38;10.50;;;3.50;;
64395;SDS011;50717;53.360;6.290;2023-04-01T23:39:21;13.73;;;4.05;;
64395;SDS011;50717;53.360;6.290;2023-04-01T23:41:48;8.88;;;3.63;;
64395;SDS011;50717;53.360;6.290;2023-04-01T23:46:40;15.60;;;4.35;;
64395;SDS011;50717;53.360;6.290;2023-04-01T23:49:11;7.82;;;3.63;;
64395;SDS011;50717;53.360;6.290;2023-04-01T23:51:39;9.77;;;3.67;;
64395;SDS011;50717;53.360;6.290;2023-04-01T23:54:19;11.45;;;3.83;;
64395;SDS011;50717;53.360;6.290;2023-04-01T23:56:53;11.90;;;4.18;;
64395;SDS011;50717;53.360;6.290;2023-04-01T23:59:24;7.05;;;3.45;;
